Latest Weather Observations for Blackall

IDQ60801

Issued at 6:22 am EST Friday 23 February 2024 (issued every 10 minutes, with the page automatically refreshed every 10 minutes)

About weather observations | Map of weather stations | Latest weather observations for QLD | Other Formats
Station Details ID: 036034 Name: BLACKALL AIRPORT Lat: -24.43 Lon: 145.43 Height: 281.3 m
Data from the previous 72 hours. | See also: Recent months at Blackall
Date/Time
EST
Temp
°C
App
Temp
°C
Dew
Point
°C
Rel
Hum
%
Delta-T
°C
Wind Press
QNH
hPa
Press
MSL
hPa
Rain since
9am
mm
Dir  Spd
km/h
Gust
km/h
Spd
kts
Gust
kts
23/06:00am 22.2 25.7 22.2 100 0.0 ENE 7 9 4 5 1013.9 1011.9 13.0
23/05:30am 22.4 26.0 22.4 100 0.0 E 7 9 4 5 1013.6 1011.6 13.0
23/05:00am 22.4 26.0 22.4 100 0.0 ESE 7 9 4 5 1013.2 1011.2 13.0
23/04:30am 22.6 26.5 22.6 100 0.0 SE 6 9 3 5 1013.1 1011.1 13.0
23/04:00am 22.8 27.6 22.8 100 0.0 ESE 2 7 1 4 1013.0 1011.0 13.0
23/03:30am 22.7 26.7 22.7 100 0.0 ESE 6 7 3 4 1012.7 1010.7 13.0
23/03:00am 22.8 26.6 22.8 100 0.0 ESE 7 11 4 6 1012.7 1010.7 13.0
23/02:30am 23.0 28.3 23.0 100 0.0 CALM 0 6 0 3 1013.3 1011.3 13.0
23/02:00am 23.0 27.9 23.0 100 0.0 N 2 7 1 4 1013.6 1011.6 13.0
23/01:30am 23.0 28.3 23.0 100 0.0 CALM 0 0 0 0 1013.9 1011.9 13.0
23/01:00am 23.0 27.5 23.0 100 0.0 SSW 4 9 2 5 1014.2 1012.2 13.0
23/12:30am 23.0 28.3 23.0 100 0.0 CALM 0 0 0 0 1014.4 1012.4 13.0
23/12:00am 22.8 28.0 22.8 100 0.0 CALM 0 0 0 0 1014.7 1012.7 13.0
 
Date/Time
EST
Temp
°C
App
Temp
°C
Dew
Point
°C
Rel
Hum
%
Delta-T
°C
Wind Press
QNH
hPa
Press
MSL
hPa
Rain since
9am
mm
Dir  Spd
km/h
Gust
km/h
Spd
kts
Gust
kts
22/11:30pm 22.6 27.3 22.6 100 0.0 S 2 7 1 4 1014.9 1012.9 13.0
22/11:00pm 22.5 26.2 22.5 100 0.0 ENE 7 11 4 6 1015.2 1013.2 13.0
22/10:30pm 22.3 24.7 22.3 100 0.0 ESE 13 15 7 8 1015.0 1013.0 12.4
22/10:00pm 22.8 25.9 22.8 100 0.0 ENE 11 13 6 7 1014.8 1012.8 12.2
22/09:30pm 22.7 25.7 22.7 100 0.0 N 11 22 6 12 1014.8 1012.8 11.2
22/09:00pm 22.2 25.7 21.9 98 0.2 SSW 6 9 3 5 1014.2 1012.2 11.2
22/08:30pm 22.4 26.2 22.4 100 0.0 S 6 7 3 4 1014.0 1012.0 11.2
22/08:00pm 22.2 25.7 22.2 100 0.0 W 7 9 4 5 1013.6 1011.6 11.0
22/07:30pm 22.1 25.4 21.9 99 0.1 S 7 9 4 5 1013.0 1011.0 11.0
22/07:00pm 21.7 23.4 20.9 95 0.5 SW 13 19 7 10 1012.9 1010.9 10.8
22/06:55pm 21.7 23.4 20.9 95 0.5 SW 13 19 7 10 1012.8 1010.8 10.6
22/06:30pm 22.1 21.4 20.2 89 1.2 NNW 24 32 13 17 1012.9 1010.9 10.0
22/06:21pm 23.0 22.2 20.0 83 2.0 NNE 24 44 13 24 1013.1 1011.1 6.6
22/06:18pm 23.5 23.2 19.2 77 2.8 N 19 44 10 24 1012.9 1010.9 2.8
22/06:00pm 28.8 29.9 20.5 61 5.5 WSW 15 19 8 10 1012.0 1010.0 0.6
22/05:30pm 29.7 31.6 20.5 57 6.2 SW 11 17 6 9 1011.6 1009.6 0.6
22/05:00pm 29.4 30.9 20.5 58 6.0 WSW 13 19 7 10 1011.3 1009.3 0.6
22/04:30pm 28.5 31.0 21.0 64 5.0 SSE 9 15 5 8 1011.6 1009.6 0.6
22/04:00pm 29.0 31.5 19.9 58 6.0 NNW 6 11 3 6 1011.9 1009.9 0.6
22/03:30pm 28.4 29.3 19.3 57 6.0 WNW 13 19 7 10 1011.8 1009.8 0.6
22/03:00pm 26.6 28.3 20.9 71 3.8 NNW 13 20 7 11 1011.7 1009.7 0.6
22/02:30pm 27.7 28.3 21.0 67 4.5 NW 19 28 10 15 1011.7 1009.7 0.6
22/02:00pm 28.1 30.0 21.4 67 4.5 WNW 13 19 7 10 1011.4 1009.4 0.6
22/01:30pm 28.6 32.9 21.1 64 5.0 CALM 0 0 0 0 1011.7 1009.7 0.6
22/01:00pm 25.1 26.2 21.2 79 2.6 NW 17 30 9 16 1012.3 1010.3 0.6
22/12:43pm 25.2 23.5 19.8 72 3.5 NNE 28 57 15 31 1012.5 1010.5 0.2
22/12:42pm 25.4 24.1 19.8 71 3.7 NE 26 57 14 31 1012.4 1010.4 0.2
22/12:30pm 31.2 32.2 20.2 52 7.4 NE 15 24 8 13 1012.4 1010.4 0.2
22/12:00pm 30.6 31.9 19.3 51 7.5 NNE 11 19 6 10 1012.9 1010.9 0.2
22/11:30am 31.7 32.5 20.6 51 7.5 NNE 17 28 9 15 1013.6 1011.6 0.2
22/11:00am 31.1 32.9 21.9 58 6.3 NNE 15 22 8 12 1013.9 1011.9 0.2
22/10:30am 29.6 31.3 21.0 60 5.8 NNE 13 19 7 10 1014.2 1012.2 0.2
22/10:00am 29.2 30.9 20.9 61 5.6 NNE 13 20 7 11 1014.3 1012.3 0.0
22/09:30am 27.5 29.9 21.5 70 4.0 NE 11 15 6 8 1014.5 1012.5 0.0
22/09:00am 26.5 27.9 21.0 72 3.7 NNE 15 20 8 11 1014.5 1012.5 3.6
22/08:30am 25.4 27.2 21.1 77 2.9 NNE 13 19 7 10 1014.4 1012.4 3.6
22/08:00am 24.4 26.8 20.9 81 2.3 ENE 9 13 5 7 1014.2 1012.2 3.6
22/07:30am 23.6 27.0 20.9 85 1.8 ENE 4 9 2 5 1013.9 1011.9 3.6
22/07:00am 22.8 26.1 20.7 88 1.4 E 4 7 2 4 1013.6 1011.6 3.6
22/06:30am 22.5 26.6 20.8 90 1.1 CALM 0 0 0 0 1013.4 1011.4 3.6
22/06:00am 22.2 26.2 20.5 90 1.1 CALM 0 0 0 0 1013.2 1011.2 3.6
22/05:30am 22.3 26.5 20.9 92 0.9 CALM 0 0 0 0 1012.9 1010.9 3.6
22/05:00am 22.2 24.8 20.1 88 1.4 ENE 6 7 3 4 1012.6 1010.6 3.6
22/04:30am 22.1 24.5 20.0 88 1.4 ENE 7 11 4 6 1012.5 1010.5 3.6
22/04:00am 22.0 24.0 19.9 88 1.4 E 9 13 5 7 1012.3 1010.3 3.6
22/03:30am 22.0 24.4 20.1 89 1.2 E 7 11 4 6 1012.1 1010.1 3.6
22/03:00am 21.9 24.3 20.0 89 1.2 ESE 7 9 4 5 1012.0 1010.0 3.6
22/02:30am 21.8 24.1 19.9 89 1.2 SE 7 9 4 5 1012.3 1010.3 3.6
22/02:00am 21.7 23.4 19.3 86 1.5 ESE 9 11 5 6 1012.7 1010.7 3.6
22/01:30am 21.7 23.3 19.1 85 1.7 SE 9 13 5 7 1012.9 1010.9 3.6
22/01:00am 21.7 22.9 19.1 85 1.7 ESE 11 15 6 8 1013.3 1011.3 3.6
22/12:30am 21.9 22.3 18.9 83 1.9 E 15 20 8 11 1013.8 1011.8 3.6
22/12:00am 21.9 22.3 19.1 84 1.8 E 15 20 8 11 1014.4 1012.4 3.6
 
Date/Time
EST
Temp
°C
App
Temp
°C
Dew
Point
°C
Rel
Hum
%
Delta-T
°C
Wind Press
QNH
hPa
Press
MSL
hPa
Rain since
9am
mm
Dir  Spd
km/h
Gust
km/h
Spd
kts
Gust
kts
21/11:30pm 21.8 21.9 19.2 85 1.7 ESE 17 22 9 12 1014.3 1012.3 3.6
21/11:00pm 21.8 23.2 21.1 96 0.5 SE 15 19 8 10 1014.5 1012.5 3.6
21/10:30pm 21.8 24.3 21.8 100 0.0 SSE 11 15 6 8 1014.5 1012.5 3.6
21/10:00pm 21.8 23.8 21.6 99 0.1 SE 13 19 7 10 1014.3 1012.3 3.6
21/09:30pm 21.9 23.8 21.4 97 0.3 SSE 13 17 7 9 1014.2 1012.2 3.6
21/09:00pm 21.9 22.9 21.1 95 0.5 SSE 17 20 9 11 1013.9 1011.9 3.6
21/08:30pm 22.1 23.9 21.8 98 0.2 S 15 20 8 11 1013.5 1011.5 3.6
21/08:00pm 22.0 23.9 22.0 100 0.0 S 15 20 8 11 1013.1 1011.1 3.6
21/07:30pm 22.4 24.1 21.6 95 0.5 S 15 20 8 11 1012.6 1010.6 3.0
21/07:00pm 23.0 24.6 21.5 91 1.0 SSE 15 24 8 13 1012.5 1010.5 3.0
21/06:30pm 22.7 22.8 21.2 91 1.0 SSW 22 37 12 20 1012.0 1010.0 3.0
21/06:15pm 23.0 21.0 20.7 87 1.5 SSW 32 46 17 25 1011.7 1009.7 3.0
21/06:00pm 23.8 23.3 20.7 83 2.0 S 24 39 13 21 1011.7 1009.7 3.0
21/05:34pm 28.5 25.5 18.6 55 6.4 WSW 32 46 17 25 1010.7 1008.6 0.0
21/05:30pm 28.8 25.5 18.3 53 6.8 WSW 33 52 18 28 1010.6 1008.5 0.0
21/05:23pm 30.6 28.7 17.7 46 8.3 NW 24 52 13 28 1010.1 1008.1 0.0
21/05:22pm 31.1 29.6 17.8 45 8.6 NW 22 52 12 28 1010.1 1008.1 0.0
21/05:00pm 32.9 32.5 16.3 37 10.6 NNW 13 20 7 11 1009.1 1007.1 0.0
21/04:30pm 33.5 32.6 15.9 34 11.2 NNW 15 20 8 11 1008.7 1006.7 0.0
21/04:00pm 34.0 32.7 15.9 33 11.5 N 17 24 9 13 1008.7 1006.7 0.0
21/03:30pm 34.1 34.1 18.2 39 10.4 N 15 24 8 13 1008.7 1006.7 0.0
21/03:00pm 33.3 33.5 18.6 41 9.7 N 15 20 8 11 1009.0 1007.0 0.0
21/02:30pm 32.4 32.6 19.3 46 8.7 N 17 24 9 13 1009.4 1007.4 0.0
21/02:00pm 32.3 33.2 19.2 46 8.7 N 13 20 7 11 1010.0 1008.0 0.0
21/01:30pm 32.9 33.1 19.4 45 9.0 NNW 17 24 9 13 1010.9 1008.9 0.0
21/01:00pm 32.6 33.2 20.2 48 8.3 N 17 30 9 16 1011.5 1009.5 0.0
21/12:30pm 31.8 32.0 20.1 50 7.8 N 19 26 10 14 1012.1 1010.1 0.0
21/12:00pm 31.9 32.9 21.1 52 7.3 N 17 24 9 13 1012.5 1010.5 0.0
21/11:30am 30.5 30.5 20.1 53 6.9 N 20 30 11 16 1012.9 1010.9 0.0
21/11:00am 30.2 30.2 20.2 55 6.7 N 20 30 11 16 1013.1 1011.1 0.0
21/10:30am 29.8 30.5 21.2 60 5.8 N 19 28 10 15 1013.5 1011.5 0.0
21/10:00am 29.9 30.5 21.3 60 5.8 N 20 32 11 17 1013.7 1011.7 0.0
21/09:30am 28.8 29.1 20.8 62 5.4 N 20 30 11 16 1013.9 1011.9 0.0
21/09:00am 28.4 28.5 21.2 65 4.8 N 22 32 12 17 1014.0 1012.0 0.0
21/08:30am 27.4 27.7 20.7 67 4.5 N 20 26 11 14 1013.9 1011.9 0.0
21/08:00am 26.4 27.2 20.7 71 3.8 NNE 17 24 9 13 1013.6 1011.6 0.0
21/07:30am 25.6 26.0 19.9 70 3.7 NNE 17 24 9 13 1013.3 1011.3 0.0
21/07:00am 24.6 26.2 19.9 75 3.1 NE 11 13 6 7 1012.9 1010.9 0.0
21/06:30am 23.8 25.6 19.5 77 2.8 NNE 9 13 5 7 1012.5 1010.5 0.0
21/06:00am 23.4 25.3 18.9 76 2.9 NE 7 9 4 5 1012.1 1010.1 0.0
21/05:30am 23.5 24.9 18.6 74 3.1 NE 9 13 5 7 1012.0 1010.0 0.0
21/05:00am 23.5 24.7 18.2 72 3.4 NE 9 13 5 7 1011.7 1009.7 0.0
21/04:30am 23.3 24.6 18.4 74 3.1 ENE 9 11 5 6 1011.4 1009.4 0.0
21/04:00am 23.6 25.4 18.7 74 3.1 NE 7 9 4 5 1011.2 1009.2 0.0
21/03:30am 23.5 25.3 18.8 75 3.0 ENE 7 9 4 5 1010.8 1008.7 0.0
21/03:00am 23.5 25.3 18.8 75 3.0 NE 7 9 4 5 1010.8 1008.7 0.0
21/02:30am 23.7 25.4 18.6 73 3.3 NE 7 9 4 5 1010.9 1008.9 0.0
21/02:00am 23.9 25.8 18.5 72 3.5 NE 6 7 3 4 1010.9 1008.9 0.0
21/01:30am 24.1 26.0 18.5 71 3.6 NE 6 7 3 4 1011.1 1009.1 0.0
21/01:00am 24.2 26.6 17.9 68 4.0 E 2 6 1 3 1011.3 1009.3 0.0
21/12:30am 24.7 26.1 17.9 66 4.3 NE 7 11 4 6 1011.5 1009.5 0.0
21/12:00am 25.0 26.1 18.0 65 4.5 ENE 9 13 5 7 1011.8 1009.8 0.0
 
Date/Time
EST
Temp
°C
App
Temp
°C
Dew
Point
°C
Rel
Hum
%
Delta-T
°C
Wind Press
QNH
hPa
Press
MSL
hPa
Rain since
9am
mm
Dir  Spd
km/h
Gust
km/h
Spd
kts
Gust
kts
20/11:30pm 25.7 25.9 17.6 61 5.1 ENE 13 17 7 9 1012.1 1010.1 0.0
20/11:00pm 25.8 26.2 17.2 59 5.4 E 11 17 6 9 1012.1 1010.1 0.0
20/10:30pm 26.3 27.1 17.4 58 5.6 ENE 9 13 5 7 1012.1 1010.1 0.0
20/10:00pm 26.5 27.3 18.1 60 5.4 ENE 11 17 6 9 1012.0 1010.0 0.0
20/09:30pm 26.9 28.5 17.9 57 5.8 NNE 6 11 3 6 1011.8 1009.8 0.0
20/09:00pm 27.4 29.7 17.8 55 6.1 NNE 2 9 1 5 1011.6 1009.6 0.0
20/08:30pm 28.1 28.3 17.6 53 6.7 NE 13 17 7 9 1011.5 1009.5 0.0
20/08:00pm 29.2 28.5 17.4 49 7.5 NE 17 22 9 12 1011.2 1009.2 0.0
20/07:30pm 29.7 28.4 16.8 45 8.2 ENE 19 26 10 14 1010.9 1008.9 0.0
20/07:00pm 30.6 32.7 18.0 47 8.2 S 4 28 2 15 1010.5 1008.4 0.0
20/06:30pm 32.3 33.8 17.7 41 9.5 SSW 6 9 3 5 1010.0 1008.0 0.0
20/06:00pm 33.0 33.8 16.4 37 10.6 SW 7 11 4 6 1009.7 1007.7 0.0
20/05:30pm 33.9 34.9 16.3 35 11.2 W 6 13 3 7 1009.4 1007.4 0.0
20/05:00pm 34.2 34.0 15.6 32 11.8 SSW 11 15 6 8 1009.3 1007.3 0.0
20/04:30pm 34.3 35.8 15.7 32 11.8 SSE 2 9 1 5 1009.4 1007.4 0.0
20/04:00pm 35.0 36.3 17.2 34 11.6 NE 6 13 3 7 1009.8 1007.8 0.0
20/03:30pm 34.6 35.6 16.4 33 11.7 NE 6 11 3 6 1010.1 1008.1 0.0
20/03:00pm 34.6 36.2 18.2 37 10.8 NNE 7 11 4 6 1010.6 1008.5 0.0
20/02:30pm 33.9 34.9 16.3 35 11.2 NNW 6 9 3 5 1011.0 1009.0 0.0
20/02:00pm 34.0 35.9 16.8 35 11.1 NE 2 13 1 7 1011.6 1009.6 0.0
20/01:30pm 34.2 34.9 16.1 34 11.5 E 7 13 4 7 1012.2 1010.2 0.0
20/01:00pm 33.6 33.7 16.5 36 10.9 E 11 19 6 10 1012.5 1010.5 0.0
20/12:30pm 33.3 33.6 17.9 40 10.0 NNE 13 20 7 11 1012.9 1010.9 0.0
20/12:00pm 32.8 34.0 17.4 39 10.0 WNW 7 17 4 9 1013.4 1011.4 0.0
20/11:30am 33.1 34.4 19.2 43 9.2 NNW 11 19 6 10 1013.9 1011.9 0.0
20/11:00am 31.5 31.7 18.5 46 8.5 NNE 15 22 8 12 1014.3 1012.3 0.0
20/10:30am 31.0 30.9 18.7 48 8.1 NNE 17 22 9 12 1014.4 1012.4 0.0
20/10:00am 30.3 30.6 19.6 52 7.1 N 17 28 9 15 1014.5 1012.5 0.0
20/09:30am 29.1 29.0 20.0 58 6.0 N 20 32 11 17 1014.5 1012.5 0.0
20/09:00am 28.3 28.0 19.5 59 5.8 N 20 26 11 14 1014.5 1012.5 0.0
20/08:30am 27.2 27.5 18.8 60 5.4 NNE 15 22 8 12 1014.7 1012.7 0.0
20/08:00am 26.8 27.6 18.1 59 5.6 NE 11 19 6 10 1014.5 1012.5 0.0
20/07:30am 25.9 27.1 18.3 63 4.9 NE 9 15 5 8 1013.7 1011.7 0.0
20/07:00am 24.3 26.6 19.8 76 2.9 ENE 7 11 4 6 1013.2 1011.2 0.0
20/06:30am 23.7 26.0 19.4 77 2.8 ENE 6 7 3 4 1012.6 1010.6 0.0

Other formats

Comma delimited format used in spreadsheet applications
http://www.bom.gov.au/fwo/IDQ60801/IDQ60801.95351.axf

JavaScript Object Notation format (JSON) in row-major order
http://www.bom.gov.au/fwo/IDQ60801/IDQ60801.95351.json

Data quality

Most of these data are generated automatically and are frequently updated. Quality checks on data are not normally performed. It is possible for incorrect values to appear. Refer to information at About Latest Weather Observations and please check the disclaimer before using these data.